createdAt,value
2018-01-29T00:00:16.802Z,43.07
2018-01-29T00:02:44.346Z,44.37
2018-01-29T00:05:11.872Z,32.73
2018-01-29T00:07:39.454Z,54.20
2018-01-29T00:10:07.003Z,52.20
2018-01-29T00:12:34.930Z,39.17
2018-01-29T00:15:02.458Z,40.57
2018-01-29T00:17:29.991Z,47.73
2018-01-29T00:19:57.611Z,45.80
2018-01-29T00:22:25.175Z,40.63
2018-01-29T00:24:52.695Z,52.70
2018-01-29T00:27:20.302Z,43.57
2018-01-29T00:29:47.875Z,44.10
2018-01-29T00:32:15.418Z,50.03
2018-01-29T00:34:43.026Z,55.33
2018-01-29T00:37:10.616Z,63.37
2018-01-29T00:39:38.657Z,57.10
2018-01-29T00:42:06.290Z,52.70
2018-01-29T00:44:33.878Z,68.10
2018-01-29T00:47:01.612Z,58.47
2018-01-29T00:49:29.150Z,56.70
2018-01-29T00:51:56.736Z,57.53
2018-01-29T00:54:24.306Z,53.03
2018-01-29T00:56:51.859Z,55.73
2018-01-29T00:59:19.421Z,62.20
2018-01-29T01:01:47.026Z,64.67
2018-01-29T01:04:14.556Z,66.47
2018-01-29T01:06:42.488Z,56.53
2018-01-29T01:09:10.031Z,73.30
2018-01-29T01:11:37.920Z,77.03
2018-01-29T01:14:05.559Z,70.53
2018-01-29T01:16:33.087Z,59.70
2018-01-29T01:19:00.651Z,63.63
2018-01-29T01:21:28.213Z,63.73
2018-01-29T01:23:55.736Z,62.03
2018-01-29T01:26:23.306Z,62.73
2018-01-29T01:28:51.228Z,36.10
2018-01-29T01:31:18.916Z,57.73
2018-01-29T01:33:46.473Z,54.20
2018-01-29T01:36:14.040Z,47.00
2018-01-29T01:38:41.570Z,62.03
2018-01-29T01:41:09.128Z,72.33
2018-01-29T01:43:36.715Z,50.13
2018-01-29T01:46:04.282Z,48.53
2018-01-29T01:48:31.822Z,44.47
2018-01-29T01:50:59.999Z,51.23
2018-01-29T01:53:27.636Z,44.80
2018-01-29T01:55:55.168Z,43.20
2018-01-29T02:00:21.148Z,32.33
2018-01-29T02:02:48.751Z,35.97
2018-01-29T02:05:16.290Z,30.53
2018-01-29T02:07:43.843Z,29.37
2018-01-29T02:10:11.415Z,23.93
2018-01-29T02:12:39.039Z,22.57
2018-01-29T02:15:06.653Z,23.83
2018-01-29T02:17:34.219Z,26.10
2018-01-29T02:20:01.744Z,23.20
2018-01-29T02:22:30.249Z,25.70
2018-01-29T02:24:57.771Z,29.00
2018-01-29T02:27:25.327Z,23.50
2018-01-29T02:29:53.086Z,23.07
2018-01-29T02:32:20.657Z,26.20
2018-01-29T02:34:48.193Z,23.13
2018-01-29T02:37:15.789Z,27.70
2018-01-29T02:39:43.348Z,22.73
2018-01-29T02:42:11.351Z,31.77
2018-01-29T02:44:38.899Z,20.97
2018-01-29T02:47:06.452Z,21.87
2018-01-29T02:49:34.030Z,23.60
2018-01-29T02:52:01.567Z,22.37
2018-01-29T02:54:29.173Z,23.53
2018-01-29T02:56:56.716Z,24.43
2018-01-29T02:59:24.245Z,19.37
2018-01-29T03:01:51.859Z,19.70
2018-01-29T03:04:20.352Z,14.00
2018-01-29T03:06:47.887Z,15.43
2018-01-29T03:09:15.476Z,18.97
2018-01-29T03:11:43.001Z,13.70
2018-01-29T03:14:10.539Z,14.37
2018-01-29T03:16:38.463Z,25.53
2018-01-29T03:19:06.014Z,21.50
2018-01-29T03:21:33.767Z,25.07
2018-01-29T03:24:01.356Z,21.63
2018-01-29T03:26:29.011Z,21.93
2018-01-29T03:28:56.575Z,17.00
2018-01-29T03:31:24.100Z,21.17
2018-01-29T03:33:51.689Z,20.77
2018-01-29T03:36:19.241Z,22.47
2018-01-29T03:38:46.858Z,23.73
2018-01-29T03:41:14.380Z,20.70
2018-01-29T03:43:41.897Z,22.70
2018-01-29T03:46:10.326Z,19.30
2018-01-29T03:48:37.914Z,20.00
2018-01-29T03:51:05.476Z,19.63
2018-01-29T03:53:33.068Z,32.60
2018-01-29T03:56:00.711Z,21.30
2018-01-29T03:58:28.287Z,17.90
2018-01-29T04:00:55.814Z,15.87
2018-01-29T04:03:23.369Z,23.73
2018-01-29T04:05:50.966Z,24.60
2018-01-29T04:08:18.975Z,22.07
2018-01-29T04:10:47.080Z,14.40
2018-01-29T04:13:14.650Z,23.00
2018-01-29T04:15:43.050Z,19.80
2018-01-29T04:18:10.939Z,20.23
2018-01-29T04:20:38.765Z,19.57
2018-01-29T04:23:06.290Z,16.60
2018-01-29T04:25:34.780Z,20.00
2018-01-29T04:28:02.488Z,19.00
2018-01-29T04:30:30.017Z,25.53
2018-01-29T04:32:58.608Z,22.17
2018-01-29T04:35:26.289Z,14.80
2018-01-29T04:37:54.173Z,21.00
2018-01-29T04:40:21.706Z,17.70
2018-01-29T04:42:49.263Z,23.03
2018-01-29T04:45:17.197Z,22.83
2018-01-29T04:47:44.711Z,18.17
2018-01-29T04:50:12.284Z,25.47
2018-01-29T04:52:41.027Z,18.50
2018-01-29T04:55:08.617Z,18.57
2018-01-29T04:57:36.146Z,17.37
2018-01-29T05:00:03.724Z,19.93
2018-01-29T05:02:31.627Z,13.20
2018-01-29T05:04:59.237Z,19.23
2018-01-29T05:07:26.788Z,13.30
2018-01-29T05:09:54.356Z,12.90
2018-01-29T05:12:21.915Z,16.00
2018-01-29T05:14:49.529Z,18.73
2018-01-29T05:17:17.103Z,18.70
2018-01-29T05:19:44.667Z,14.47
2018-01-29T05:22:12.234Z,16.07
2018-01-29T05:24:39.744Z,11.13
2018-01-29T05:27:07.288Z,11.80
2018-01-29T05:29:34.930Z,12.93
2018-01-29T05:32:02.472Z,18.07
2018-01-29T05:34:30.144Z,18.57
2018-01-29T05:37:12.602Z,15.27
2018-01-29T05:39:40.140Z,14.87
2018-01-29T05:42:07.836Z,24.00
2018-01-29T05:44:35.462Z,24.37
2018-01-29T05:47:03.024Z,16.37
2018-01-29T05:49:30.672Z,23.20
2018-01-29T05:51:58.326Z,14.20
2018-01-29T05:54:25.916Z,17.03
2018-01-29T05:56:53.443Z,15.30
2018-01-29T05:59:21.032Z,13.43
2018-01-29T06:01:48.582Z,11.40
2018-01-29T06:04:16.144Z,15.53
2018-01-29T06:06:43.706Z,6.73
2018-01-29T06:09:11.243Z,19.43
2018-01-29T06:11:38.837Z,8.47
2018-01-29T06:14:06.343Z,8.17
2018-01-29T06:16:33.883Z,14.80
2018-01-29T06:19:01.548Z,14.80
2018-01-29T06:21:29.093Z,10.47
2018-01-29T06:23:56.668Z,8.23
2018-01-29T06:26:24.237Z,16.10
2018-01-29T06:28:51.807Z,11.57
2018-01-29T06:31:19.347Z,22.13
2018-01-29T06:33:46.919Z,13.67
2018-01-29T06:36:14.446Z,13.57
2018-01-29T06:38:41.975Z,11.17
2018-01-29T06:41:09.548Z,18.60
2018-01-29T06:43:37.051Z,14.47
2018-01-29T06:46:04.613Z,17.53
2018-01-29T06:48:32.180Z,10.97
2018-01-29T06:50:59.720Z,10.30
2018-01-29T06:53:27.367Z,11.33
2018-01-29T06:55:54.912Z,15.83
2018-01-29T06:58:22.496Z,10.87
2018-01-29T07:00:50.394Z,10.97
2018-01-29T07:03:17.944Z,13.20
2018-01-29T07:05:45.494Z,16.73
2018-01-29T07:08:13.064Z,20.33
2018-01-29T07:10:40.627Z,13.10
2018-01-29T07:13:08.212Z,12.63
2018-01-29T07:15:35.739Z,14.77
2018-01-29T07:18:03.299Z,8.83
2018-01-29T07:20:30.838Z,16.23
2018-01-29T07:22:58.408Z,13.13
2018-01-29T07:25:25.975Z,18.33
2018-01-29T07:27:53.832Z,11.93
2018-01-29T07:30:21.356Z,14.53
2018-01-29T07:32:48.918Z,9.60
2018-01-29T07:35:16.535Z,9.13
2018-01-29T07:37:44.106Z,19.47
2018-01-29T07:40:11.644Z,10.03
2018-01-29T07:42:39.229Z,18.60
2018-01-29T07:45:06.777Z,13.77
2018-01-29T07:47:34.360Z,12.97
2018-01-29T07:50:01.912Z,19.60
2018-01-29T07:52:29.457Z,15.10
2018-01-29T07:54:57.016Z,28.10
2018-01-29T07:57:24.607Z,14.83
2018-01-29T07:59:52.200Z,9.40
2018-01-29T08:02:19.712Z,10.40
2018-01-29T08:04:47.232Z,14.63
2018-01-29T08:07:14.810Z,19.90
2018-01-29T08:09:42.403Z,10.30
2018-01-29T08:12:10.010Z,9.67
2018-01-29T08:14:37.586Z,10.33
2018-01-29T08:17:05.107Z,20.67
2018-01-29T08:19:32.813Z,13.93
2018-01-29T08:22:00.402Z,14.80
2018-01-29T08:24:27.977Z,14.33
2018-01-29T08:26:55.488Z,14.23
2018-01-29T08:29:23.035Z,12.30
2018-01-29T08:31:50.575Z,16.77
2018-01-29T08:34:18.088Z,18.63
2018-01-29T08:36:45.639Z,9.77
2018-01-29T08:39:13.207Z,18.23
2018-01-29T08:41:40.721Z,14.53
2018-01-29T08:44:08.298Z,10.87
2018-01-29T08:46:35.849Z,12.93
2018-01-29T08:49:03.435Z,14.87
2018-01-29T08:51:30.959Z,10.03
2018-01-29T08:53:59.481Z,13.40
2018-01-29T08:56:27.044Z,16.93
2018-01-29T08:58:55.087Z,16.63
2018-01-29T09:01:22.508Z,15.47
2018-01-29T09:03:50.027Z,17.50
2018-01-29T09:06:17.632Z,12.73
2018-01-29T09:08:45.162Z,14.27
2018-01-29T09:11:12.709Z,22.60
2018-01-29T09:13:40.262Z,8.43
2018-01-29T09:16:07.805Z,11.13
2018-01-29T09:18:35.711Z,16.20
2018-01-29T09:21:03.261Z,20.53
2018-01-29T09:23:30.957Z,10.43
2018-01-29T09:25:58.400Z,10.67
2018-01-29T09:28:26.075Z,6.87
2018-01-29T09:30:53.595Z,10.73
2018-01-29T09:33:21.431Z,14.47
2018-01-29T09:35:48.972Z,10.50
2018-01-29T09:38:16.493Z,6.90
2018-01-29T09:40:44.070Z,10.03
2018-01-29T09:43:11.626Z,9.67
2018-01-29T09:45:39.556Z,11.03
2018-01-29T09:48:07.144Z,13.03
2018-01-29T09:50:34.720Z,7.03
2018-01-29T09:53:02.560Z,5.90
2018-01-29T09:55:30.112Z,10.47
2018-01-29T09:57:57.632Z,9.63
2018-01-29T10:00:25.242Z,5.90
2018-01-29T10:02:52.802Z,11.10
2018-01-29T10:05:20.410Z,7.00
2018-01-29T10:07:47.982Z,10.17
2018-01-29T10:10:15.545Z,3.37
2018-01-29T10:12:43.128Z,10.30
2018-01-29T10:15:10.795Z,8.13
2018-01-29T10:17:38.327Z,6.50
2018-01-29T10:20:05.937Z,18.23
2018-01-29T10:22:33.455Z,4.40
2018-01-29T10:25:00.977Z,7.57
2018-01-29T10:27:28.566Z,3.77
2018-01-29T10:29:56.097Z,18.37
2018-01-29T10:32:23.613Z,7.13
2018-01-29T10:34:51.525Z,12.47
2018-01-29T10:37:19.126Z,8.27
2018-01-29T10:39:46.650Z,2.97
2018-01-29T10:42:14.225Z,7.13
2018-01-29T10:44:41.788Z,13.43
2018-01-29T10:47:09.324Z,7.57
2018-01-29T10:49:36.885Z,7.30
2018-01-29T10:52:04.406Z,3.90
2018-01-29T10:54:31.951Z,11.00
2018-01-29T10:56:59.530Z,7.03
2018-01-29T10:59:27.124Z,12.53
2018-01-29T11:02:00.208Z,6.40
2018-01-29T11:04:27.749Z,4.47
2018-01-29T11:06:55.293Z,9.40
2018-01-29T11:09:22.830Z,5.70
2018-01-29T11:11:50.411Z,6.53
2018-01-29T11:14:17.936Z,16.37
2018-01-29T11:16:45.478Z,7.73
2018-01-29T11:19:13.015Z,6.60
2018-01-29T11:21:40.547Z,6.30
2018-01-29T11:24:08.141Z,4.73
2018-01-29T11:26:35.755Z,6.07
2018-01-29T11:29:03.273Z,11.97
2018-01-29T11:31:30.878Z,13.80
2018-01-29T11:33:58.414Z,10.60
2018-01-29T11:36:25.956Z,12.53
2018-01-29T11:38:53.537Z,10.43
2018-01-29T11:41:21.091Z,7.00
2018-01-29T11:43:48.641Z,7.53
2018-01-29T11:46:16.203Z,7.33
2018-01-29T11:48:44.139Z,11.00
2018-01-29T11:51:11.676Z,4.90
2018-01-29T11:53:39.211Z,3.13
2018-01-29T11:56:06.844Z,6.33
2018-01-29T11:58:34.383Z,4.87
2018-01-29T12:01:01.949Z,13.43
2018-01-29T12:03:29.540Z,6.27
2018-01-29T12:05:57.101Z,26.37
2018-01-29T12:08:24.659Z,3.27
2018-01-29T12:10:52.200Z,4.07
2018-01-29T12:13:19.732Z,5.87
2018-01-29T12:15:47.363Z,8.33
2018-01-29T12:18:14.897Z,5.17
2018-01-29T12:20:42.461Z,3.87
2018-01-29T12:23:10.023Z,7.93
2018-01-29T12:25:37.546Z,9.60
2018-01-29T12:28:05.094Z,6.83
2018-01-29T12:30:32.682Z,13.70
2018-01-29T12:33:00.211Z,5.90
2018-01-29T12:35:27.828Z,7.30
2018-01-29T12:37:55.371Z,4.60
2018-01-29T12:40:22.895Z,6.60
2018-01-29T12:42:50.484Z,4.73
2018-01-29T12:45:18.052Z,7.83
2018-01-29T12:47:45.655Z,5.60
2018-01-29T12:50:13.232Z,6.10
2018-01-29T12:52:40.768Z,5.20
2018-01-29T12:55:08.344Z,8.23
2018-01-29T12:57:35.936Z,6.13
2018-01-29T13:00:03.518Z,13.30
2018-01-29T13:02:31.052Z,6.07
2018-01-29T13:04:58.590Z,5.37
2018-01-29T13:07:26.121Z,8.63
2018-01-29T13:09:53.685Z,3.53
2018-01-29T13:12:21.279Z,11.33
2018-01-29T13:14:48.815Z,10.43
2018-01-29T13:17:16.355Z,28.73
2018-01-29T13:19:44.180Z,16.03
2018-01-29T13:22:11.711Z,10.87
2018-01-29T13:24:39.275Z,13.43
2018-01-29T13:27:06.925Z,6.03
2018-01-29T13:29:34.502Z,7.30
2018-01-29T13:32:02.024Z,11.50
2018-01-29T13:34:29.545Z,6.50
2018-01-29T13:36:57.348Z,7.27
2018-01-29T13:39:24.890Z,2.80
2018-01-29T13:41:52.427Z,8.17
2018-01-29T13:44:19.996Z,10.43
2018-01-29T13:46:47.525Z,6.10
2018-01-29T13:49:15.087Z,8.57
2018-01-29T13:51:42.611Z,14.47
2018-01-29T13:54:10.286Z,6.53
2018-01-29T13:56:37.842Z,11.67
2018-01-29T13:59:05.344Z,8.50
2018-01-29T14:01:32.950Z,9.23
2018-01-29T14:04:00.483Z,8.00
2018-01-29T14:06:28.026Z,13.03
2018-01-29T14:08:55.595Z,10.63
2018-01-29T14:11:23.128Z,9.83
2018-01-29T14:13:50.691Z,10.33
2018-01-29T14:16:18.225Z,7.07
2018-01-29T14:18:46.730Z,4.87
2018-01-29T14:21:14.264Z,11.70
2018-01-29T14:23:41.852Z,11.70
2018-01-29T14:26:11.543Z,8.83
2018-01-29T14:28:39.090Z,9.70
2018-01-29T14:31:06.623Z,4.20
2018-01-29T14:33:34.180Z,6.73
2018-01-29T14:36:01.750Z,6.43
2018-01-29T14:38:29.412Z,8.23
2018-01-29T14:40:57.068Z,5.60
2018-01-29T14:43:24.598Z,10.50
2018-01-29T14:45:52.159Z,12.23
2018-01-29T14:48:19.718Z,10.53
2018-01-29T14:50:47.227Z,12.37
2018-01-29T14:53:15.081Z,12.57
2018-01-29T14:55:42.602Z,9.70
2018-01-29T14:58:10.143Z,12.80
2018-01-29T15:00:37.740Z,18.20
2018-01-29T15:03:05.268Z,9.40
2018-01-29T15:05:32.812Z,8.87
2018-01-29T15:08:00.361Z,9.00
2018-01-29T15:10:27.901Z,10.73
2018-01-29T15:12:55.452Z,13.73
2018-01-29T15:15:22.958Z,6.10
2018-01-29T15:17:50.529Z,5.53
2018-01-29T15:20:18.070Z,5.90
2018-01-29T15:22:45.638Z,8.60
2018-01-29T15:25:13.217Z,12.03
2018-01-29T15:27:40.751Z,7.37
2018-01-29T15:30:08.319Z,6.23
2018-01-29T15:32:35.832Z,9.97
2018-01-29T15:35:03.372Z,7.67
2018-01-29T15:37:30.906Z,7.93
2018-01-29T15:39:58.511Z,9.20
2018-01-29T15:42:26.222Z,11.80
2018-01-29T15:44:53.769Z,12.57
2018-01-29T15:47:21.302Z,13.90
2018-01-29T15:49:49.180Z,16.80
2018-01-29T15:52:16.742Z,12.60
2018-01-29T15:54:44.280Z,9.73
2018-01-29T15:57:11.849Z,11.40
2018-01-29T15:59:39.751Z,12.83
2018-01-29T16:02:07.379Z,15.10
2018-01-29T16:04:34.936Z,14.70
2018-01-29T16:07:02.498Z,13.43
2018-01-29T16:09:30.020Z,12.90
2018-01-29T16:11:57.593Z,12.40
2018-01-29T16:14:25.126Z,14.57
2018-01-29T16:16:52.971Z,15.83
2018-01-29T16:19:20.559Z,16.97
2018-01-29T16:21:48.100Z,17.67
2018-01-29T16:24:16.011Z,15.73
2018-01-29T16:26:43.660Z,16.33
2018-01-29T16:29:11.184Z,20.10
2018-01-29T16:31:38.736Z,23.27
2018-01-29T16:34:06.256Z,17.67
2018-01-29T16:36:33.838Z,21.07
2018-01-29T16:39:01.361Z,27.13
2018-01-29T16:41:28.970Z,23.33
2018-01-29T16:43:56.529Z,25.40
2018-01-29T16:46:24.070Z,20.67
2018-01-29T16:48:51.643Z,23.00
2018-01-29T16:51:19.197Z,14.90
2018-01-29T16:53:46.768Z,16.00
2018-01-29T16:56:14.283Z,14.63
2018-01-29T16:58:41.837Z,17.33
2018-01-29T17:01:09.416Z,9.50
2018-01-29T17:03:36.935Z,13.80
2018-01-29T17:06:04.472Z,7.80
2018-01-29T17:08:32.021Z,4.20
2018-01-29T17:10:59.595Z,4.67
2018-01-29T17:13:27.180Z,6.13
2018-01-29T17:15:54.690Z,4.57
2018-01-29T17:18:22.231Z,7.40
2018-01-29T17:20:49.800Z,10.23
2018-01-29T17:23:17.328Z,4.63
2018-01-29T17:25:45.230Z,10.83
2018-01-29T17:28:12.889Z,2.27
2018-01-29T17:30:40.423Z,3.50
2018-01-29T17:33:07.984Z,6.13
2018-01-29T17:35:35.838Z,2.90
2018-01-29T17:38:03.452Z,5.77
2018-01-29T17:40:30.972Z,4.90
2018-01-29T17:42:58.542Z,4.40
2018-01-29T17:45:26.094Z,4.83
2018-01-29T17:47:54.034Z,2.50
2018-01-29T17:50:21.660Z,6.07
2018-01-29T17:52:49.190Z,2.40
2018-01-29T17:55:16.732Z,4.90
2018-01-29T17:57:44.263Z,6.60
2018-01-29T18:00:11.834Z,6.47
2018-01-29T18:02:39.377Z,7.07
2018-01-29T18:05:06.900Z,4.10
2018-01-29T18:07:34.525Z,3.97
2018-01-29T18:10:02.077Z,5.73
2018-01-29T18:12:29.637Z,3.33
2018-01-29T18:14:57.219Z,7.53
2018-01-29T18:17:24.774Z,5.43
2018-01-29T18:19:52.653Z,6.53
2018-01-29T18:22:23.274Z,4.70
2018-01-29T18:24:51.054Z,6.90
2018-01-29T18:27:18.619Z,4.10
2018-01-29T18:29:46.176Z,10.07
2018-01-29T18:32:13.786Z,5.53
2018-01-29T18:34:41.377Z,5.30
2018-01-29T18:37:09.022Z,5.40
2018-01-29T18:39:36.581Z,8.27
2018-01-29T18:42:04.139Z,7.53
2018-01-29T18:44:31.749Z,4.80
2018-01-29T18:46:59.297Z,7.10
2018-01-29T18:49:26.869Z,6.27
2018-01-29T18:51:54.416Z,9.97
2018-01-29T18:54:23.009Z,11.57
2018-01-29T18:56:50.643Z,4.33
2018-01-29T18:59:18.211Z,6.80
2018-01-29T19:01:45.752Z,7.83
2018-01-29T19:04:13.362Z,9.40
2018-01-29T19:06:40.927Z,8.23
2018-01-29T19:09:08.462Z,8.73
2018-01-29T19:11:36.021Z,4.20
2018-01-29T19:14:03.566Z,9.97
2018-01-29T19:16:31.134Z,4.90
2018-01-29T19:18:58.694Z,4.37
2018-01-29T19:21:26.266Z,24.97
2018-01-29T19:23:54.425Z,11.43
2018-01-29T19:26:22.000Z,8.20
2018-01-29T19:28:49.512Z,8.20
2018-01-29T19:31:17.136Z,8.83
2018-01-29T19:33:44.649Z,6.43
2018-01-29T19:36:12.216Z,8.77
2018-01-29T19:38:39.772Z,8.90
2018-01-29T19:41:07.299Z,14.00
2018-01-29T19:43:34.811Z,9.00
2018-01-29T19:46:02.368Z,6.83
2018-01-29T19:48:29.938Z,8.10
2018-01-29T19:50:57.901Z,9.57
2018-01-29T19:53:25.443Z,14.93
2018-01-29T19:55:52.964Z,14.80
2018-01-29T19:58:20.528Z,7.60
2018-01-29T20:00:48.067Z,19.13
2018-01-29T20:03:15.646Z,9.43
2018-01-29T20:05:43.208Z,9.57
2018-01-29T20:08:10.774Z,19.67
2018-01-29T20:10:38.334Z,15.10
2018-01-29T20:13:05.911Z,9.90
2018-01-29T20:15:33.490Z,10.27
2018-01-29T20:18:01.055Z,10.43
2018-01-29T20:20:28.651Z,16.60
2018-01-29T20:22:56.173Z,17.70
2018-01-29T20:25:23.736Z,18.23
2018-01-29T20:27:51.348Z,20.07
2018-01-29T20:30:18.930Z,10.17
2018-01-29T20:32:46.480Z,11.20
2018-01-29T20:35:14.070Z,8.60
2018-01-29T20:37:41.620Z,10.87
2018-01-29T20:40:09.579Z,11.80
2018-01-29T20:42:37.202Z,16.33
2018-01-29T20:45:04.770Z,14.57
2018-01-29T20:47:32.621Z,10.67
2018-01-29T20:50:00.135Z,10.73
2018-01-29T20:52:27.649Z,14.40
2018-01-29T20:54:55.276Z,24.10
2018-01-29T20:57:22.846Z,14.83
2018-01-29T20:59:50.436Z,15.10
2018-01-29T21:02:17.980Z,11.90
2018-01-29T21:04:45.499Z,14.33
2018-01-29T21:07:13.077Z,16.90
2018-01-29T21:09:42.894Z,28.63
2018-01-29T21:12:10.458Z,12.30
2018-01-29T21:14:38.007Z,14.80
2018-01-29T21:17:05.538Z,26.67
2018-01-29T21:19:33.092Z,17.67
2018-01-29T21:22:00.627Z,8.50
2018-01-29T21:24:28.608Z,21.13
2018-01-29T21:26:56.147Z,9.87
2018-01-29T21:29:23.737Z,17.00
2018-01-29T21:31:51.696Z,29.30
2018-01-29T21:34:19.220Z,25.10
2018-01-29T21:36:46.798Z,22.40
2018-01-29T21:39:14.320Z,16.43
2018-01-29T21:41:41.910Z,21.80
2018-01-29T21:44:09.439Z,22.47
2018-01-29T21:46:36.960Z,18.77
2018-01-29T21:49:04.537Z,32.63
2018-01-29T21:51:32.485Z,18.03
2018-01-29T21:54:01.019Z,44.20
2018-01-29T21:56:28.589Z,17.83
2018-01-29T21:58:56.154Z,20.73
2018-01-29T22:01:23.676Z,18.93
2018-01-29T22:03:51.273Z,24.80
2018-01-29T22:06:18.821Z,33.63
2018-01-29T22:08:46.345Z,33.23
2018-01-29T22:11:13.892Z,28.77
2018-01-29T22:13:41.467Z,15.90
2018-01-29T22:16:09.013Z,43.13
2018-01-29T22:18:36.641Z,18.40
2018-01-29T22:21:04.234Z,23.73
2018-01-29T22:23:31.760Z,18.37
2018-01-29T22:25:59.331Z,6.50
2018-01-29T22:28:26.871Z,32.60
2018-01-29T22:30:54.445Z,20.90
2018-01-29T22:33:21.964Z,19.07
2018-01-29T22:35:49.670Z,33.43
2018-01-29T22:38:17.217Z,27.83
2018-01-29T22:40:44.758Z,15.83
2018-01-29T22:43:12.301Z,12.73
2018-01-29T22:45:39.825Z,19.73
2018-01-29T22:48:07.418Z,25.60
2018-01-29T22:50:34.936Z,40.30
2018-01-29T22:53:02.460Z,24.73
2018-01-29T22:55:30.076Z,16.17
2018-01-29T22:57:57.649Z,25.40
2018-01-29T23:00:25.171Z,15.47
2018-01-29T23:02:52.763Z,29.63
2018-01-29T23:05:20.298Z,18.10
2018-01-29T23:07:47.891Z,23.60
2018-01-29T23:10:15.424Z,23.83
2018-01-29T23:12:42.963Z,23.90
2018-01-29T23:15:10.537Z,21.83
2018-01-29T23:17:38.055Z,38.80
2018-01-29T23:20:05.631Z,34.40
2018-01-29T23:22:33.156Z,28.73
2018-01-29T23:25:00.712Z,15.33
2018-01-29T23:27:28.368Z,20.10
2018-01-29T23:29:55.954Z,22.67
2018-01-29T23:32:23.483Z,28.93
2018-01-29T23:34:51.056Z,28.80
2018-01-29T23:37:18.581Z,16.20
2018-01-29T23:39:46.092Z,22.87
2018-01-29T23:42:13.665Z,46.17
2018-01-29T23:44:41.231Z,21.33
2018-01-29T23:47:08.794Z,14.27
2018-01-29T23:49:36.388Z,21.03
2018-01-29T23:52:03.916Z,19.20
2018-01-29T23:54:31.455Z,19.23
2018-01-29T23:56:59.029Z,24.23
2018-01-29T23:59:26.611Z,34.03
